logo
Search for airport 
image banner adimage banner adimage banner ad
image banner ad

SVGN - Ganaderia

Located in Zulia, Venezuela

ICAO - , IATA -

Data provided by Airmate  

General information

Coordinates: N9°50'0" W71°52'30"
Elevation is feet MSL.
 
View others Airports in Zulia

Operational data

Special qualification required
Current time UTC:
Current local time:
Weather at : - ( 0 km )
METAR: USSS 191418Z 14004MPS 9999 TS SCT050CB 22/19 Q1006 R08R/010060 R08L/010060 NOSIG RMK QFE734/0979
View NOTAMs / SUP AIP / TFR affecting this airport [VIEW]
Communications frequencies: [VIEW]

Runways:

RWY identifierQFULength (ft)Width (ft)SurfaceLDA (ft)
1100UNK
2900UNK

Airport contact information

Address: Zulia Venezuela

Satellite view of SVGN